Ilfracombe, United Kingdom
Current Conditions -  °F | °C
As of 3:50 PM on Saturday 22 Nov 2014 (Local Time) from EGDX Reporting Station
Broken Clouds Broken Clouds  
Wind Chill: 55°   Ceiling: 4100
Heat Index: 55°   Visibility: 6mi
Dew Point: 52°   Wind: 7mph
Humidity: 88%   Direction: 260°W
Pressure: 29.88"   Gusts: NA
Location:  51.21°N, 4.11°W
Report Text: EGDX 221550Z AUTO 26006KT 9999 BKN041/// 13/11 Q1012
Loading
Personal Weather Stations






























Interactive Weather Map New forecast layout! Learn more

10-Day Weather Forecast

Advertisements
Track Severe Weather on mobile